sensor_id;sensor_type;location;lat;lon;timestamp;P1;durP1;ratioP1;P2;durP2;ratioP2
27740;SDS011;15134;48.768;9.184;2023-01-15T00:02:06;841.47;;;728.53;;
27740;SDS011;15134;48.768;9.184;2023-01-15T00:04:32;836.60;;;718.93;;
27740;SDS011;15134;48.768;9.184;2023-01-15T00:06:58;845.45;;;726.55;;
27740;SDS011;15134;48.768;9.184;2023-01-15T00:09:23;840.67;;;724.70;;
27740;SDS011;15134;48.768;9.184;2023-01-15T00:11:49;840.15;;;724.83;;
27740;SDS011;15134;48.768;9.184;2023-01-15T00:14:14;840.17;;;724.33;;
27740;SDS011;15134;48.768;9.184;2023-01-15T00:16:40;838.83;;;723.77;;
27740;SDS011;15134;48.768;9.184;2023-01-15T00:19:06;840.67;;;722.87;;
27740;SDS011;15134;48.768;9.184;2023-01-15T00:21:35;840.47;;;727.33;;
27740;SDS011;15134;48.768;9.184;2023-01-15T00:24:00;841.67;;;729.75;;
27740;SDS011;15134;48.768;9.184;2023-01-15T00:26:44;842.45;;;730.72;;
27740;SDS011;15134;48.768;9.184;2023-01-15T00:29:30;845.45;;;732.65;;
27740;SDS011;15134;48.768;9.184;2023-01-15T00:31:58;846.97;;;740.88;;
27740;SDS011;15134;48.768;9.184;2023-01-15T00:34:29;847.70;;;741.25;;
27740;SDS011;15134;48.768;9.184;2023-01-15T00:36:55;843.45;;;735.00;;
27740;SDS011;15134;48.768;9.184;2023-01-15T00:39:21;847.53;;;740.90;;
27740;SDS011;15134;48.768;9.184;2023-01-15T00:41:48;847.77;;;744.13;;
27740;SDS011;15134;48.768;9.184;2023-01-15T00:44:14;846.53;;;741.50;;
27740;SDS011;15134;48.768;9.184;2023-01-15T00:46:40;840.65;;;728.80;;
27740;SDS011;15134;48.768;9.184;2023-01-15T00:49:06;840.83;;;728.53;;
27740;SDS011;15134;48.768;9.184;2023-01-15T00:51:34;838.33;;;721.37;;
27740;SDS011;15134;48.768;9.184;2023-01-15T00:54:00;844.05;;;733.58;;
27740;SDS011;15134;48.768;9.184;2023-01-15T00:56:25;841.35;;;730.60;;
27740;SDS011;15134;48.768;9.184;2023-01-15T00:58:51;841.20;;;729.93;;
27740;SDS011;15134;48.768;9.184;2023-01-15T01:01:17;843.00;;;732.28;;
27740;SDS011;15134;48.768;9.184;2023-01-15T01:03:43;839.78;;;727.53;;
27740;SDS011;15134;48.768;9.184;2023-01-15T01:06:15;838.05;;;722.78;;
27740;SDS011;15134;48.768;9.184;2023-01-15T01:08:41;843.17;;;731.17;;
27740;SDS011;15134;48.768;9.184;2023-01-15T01:11:10;841.77;;;731.93;;
27740;SDS011;15134;48.768;9.184;2023-01-15T01:13:37;843.33;;;735.63;;
27740;SDS011;15134;48.768;9.184;2023-01-15T01:16:04;842.85;;;733.42;;
27740;SDS011;15134;48.768;9.184;2023-01-15T01:18:45;841.90;;;729.22;;
27740;SDS011;15134;48.768;9.184;2023-01-15T01:21:10;844.10;;;730.40;;
27740;SDS011;15134;48.768;9.184;2023-01-15T01:23:36;838.20;;;722.27;;
27740;SDS011;15134;48.768;9.184;2023-01-15T01:26:02;843.03;;;731.50;;
27740;SDS011;15134;48.768;9.184;2023-01-15T01:28:27;841.50;;;732.80;;
27740;SDS011;15134;48.768;9.184;2023-01-15T01:30:53;837.57;;;722.23;;
27740;SDS011;15134;48.768;9.184;2023-01-15T01:33:19;842.07;;;731.90;;
27740;SDS011;15134;48.768;9.184;2023-01-15T01:35:48;844.17;;;737.50;;
27740;SDS011;15134;48.768;9.184;2023-01-15T01:38:14;845.63;;;738.95;;
27740;SDS011;15134;48.768;9.184;2023-01-15T01:40:40;846.17;;;744.93;;
27740;SDS011;15134;48.768;9.184;2023-01-15T01:43:25;844.30;;;736.95;;
27740;SDS011;15134;48.768;9.184;2023-01-15T01:45:52;844.90;;;737.37;;
27740;SDS011;15134;48.768;9.184;2023-01-15T01:48:25;844.00;;;735.97;;
27740;SDS011;15134;48.768;9.184;2023-01-15T01:50:58;844.40;;;736.78;;
27740;SDS011;15134;48.768;9.184;2023-01-15T01:53:26;844.70;;;735.13;;
27740;SDS011;15134;48.768;9.184;2023-01-15T01:55:55;842.92;;;734.38;;
27740;SDS011;15134;48.768;9.184;2023-01-15T01:58:23;844.72;;;736.63;;
27740;SDS011;15134;48.768;9.184;2023-01-15T02:00:54;844.65;;;733.05;;
27740;SDS011;15134;48.768;9.184;2023-01-15T02:03:21;841.35;;;727.90;;
27740;SDS011;15134;48.768;9.184;2023-01-15T02:05:53;841.70;;;731.45;;
27740;SDS011;15134;48.768;9.184;2023-01-15T02:08:21;840.53;;;726.22;;
27740;SDS011;15134;48.768;9.184;2023-01-15T02:10:49;843.70;;;734.75;;
27740;SDS011;15134;48.768;9.184;2023-01-15T02:18:55;844.30;;;737.10;;
27740;SDS011;15134;48.768;9.184;2023-01-15T02:22:02;846.10;;;743.78;;
27740;SDS011;15134;48.768;9.184;2023-01-15T02:27:43;845.13;;;737.45;;
27740;SDS011;15134;48.768;9.184;2023-01-15T02:30:33;843.03;;;735.38;;
27740;SDS011;15134;48.768;9.184;2023-01-15T02:33:08;841.53;;;730.07;;
27740;SDS011;15134;48.768;9.184;2023-01-15T02:35:52;843.10;;;737.63;;
27740;SDS011;15134;48.768;9.184;2023-01-15T02:38:22;842.35;;;730.58;;
27740;SDS011;15134;48.768;9.184;2023-01-15T02:40:52;848.05;;;745.67;;
27740;SDS011;15134;48.768;9.184;2023-01-15T02:43:20;847.05;;;740.85;;
27740;SDS011;15134;48.768;9.184;2023-01-15T02:45:50;845.83;;;742.03;;
27740;SDS011;15134;48.768;9.184;2023-01-15T02:48:19;842.87;;;736.70;;
27740;SDS011;15134;48.768;9.184;2023-01-15T02:50:54;843.75;;;733.63;;
27740;SDS011;15134;48.768;9.184;2023-01-15T02:53:29;842.22;;;734.60;;
27740;SDS011;15134;48.768;9.184;2023-01-15T02:56:00;845.15;;;740.35;;
27740;SDS011;15134;48.768;9.184;2023-01-15T02:58:35;846.47;;;741.27;;
27740;SDS011;15134;48.768;9.184;2023-01-15T03:01:07;851.17;;;756.00;;
27740;SDS011;15134;48.768;9.184;2023-01-15T03:06:48;849.83;;;749.30;;
27740;SDS011;15134;48.768;9.184;2023-01-15T03:09:23;851.88;;;755.20;;
27740;SDS011;15134;48.768;9.184;2023-01-15T03:12:00;853.35;;;757.63;;
27740;SDS011;15134;48.768;9.184;2023-01-15T03:15:06;853.45;;;758.13;;
27740;SDS011;15134;48.768;9.184;2023-01-15T03:17:55;856.22;;;761.42;;
27740;SDS011;15134;48.768;9.184;2023-01-15T03:20:25;850.83;;;752.83;;
27740;SDS011;15134;48.768;9.184;2023-01-15T03:22:55;853.55;;;758.05;;
27740;SDS011;15134;48.768;9.184;2023-01-15T03:25:39;859.13;;;764.13;;
27740;SDS011;15134;48.768;9.184;2023-01-15T03:28:11;851.83;;;753.72;;
27740;SDS011;15134;48.768;9.184;2023-01-15T03:30:39;866.00;;;770.70;;
27740;SDS011;15134;48.768;9.184;2023-01-15T03:33:06;857.92;;;762.95;;
27740;SDS011;15134;48.768;9.184;2023-01-15T03:38:30;862.90;;;767.60;;
27740;SDS011;15134;48.768;9.184;2023-01-15T03:41:09;866.22;;;771.00;;
27740;SDS011;15134;48.768;9.184;2023-01-15T03:46:43;864.00;;;768.80;;
27740;SDS011;15134;48.768;9.184;2023-01-15T03:51:55;776.33;;;617.58;;
27740;SDS011;15134;48.768;9.184;2023-01-15T03:54:31;848.38;;;749.17;;
27740;SDS011;15134;48.768;9.184;2023-01-15T04:00:03;860.35;;;765.10;;
27740;SDS011;15134;48.768;9.184;2023-01-15T04:02:56;863.42;;;768.15;;
27740;SDS011;15134;48.768;9.184;2023-01-15T04:05:30;865.05;;;769.63;;
27740;SDS011;15134;48.768;9.184;2023-01-15T04:08:00;872.07;;;776.27;;
27740;SDS011;15134;48.768;9.184;2023-01-15T04:10:29;875.00;;;779.03;;
27740;SDS011;15134;48.768;9.184;2023-01-15T04:12:56;869.85;;;774.35;;
27740;SDS011;15134;48.768;9.184;2023-01-15T04:15:24;872.17;;;776.28;;
27740;SDS011;15134;48.768;9.184;2023-01-15T04:17:50;871.10;;;775.22;;
27740;SDS011;15134;48.768;9.184;2023-01-15T04:20:16;873.10;;;777.17;;
27740;SDS011;15134;48.768;9.184;2023-01-15T04:22:43;869.42;;;773.67;;
27740;SDS011;15134;48.768;9.184;2023-01-15T04:25:09;877.07;;;781.30;;
27740;SDS011;15134;48.768;9.184;2023-01-15T04:27:35;869.38;;;773.83;;
27740;SDS011;15134;48.768;9.184;2023-01-15T04:30:01;869.67;;;773.90;;
27740;SDS011;15134;48.768;9.184;2023-01-15T04:32:26;860.17;;;764.97;;
27740;SDS011;15134;48.768;9.184;2023-01-15T04:34:52;860.83;;;765.57;;
27740;SDS011;15134;48.768;9.184;2023-01-15T04:37:18;867.20;;;771.60;;
27740;SDS011;15134;48.768;9.184;2023-01-15T04:39:43;864.07;;;768.57;;
27740;SDS011;15134;48.768;9.184;2023-01-15T04:42:11;859.87;;;764.70;;
27740;SDS011;15134;48.768;9.184;2023-01-15T04:44:56;872.78;;;777.00;;
27740;SDS011;15134;48.768;9.184;2023-01-15T04:47:22;872.33;;;776.60;;
27740;SDS011;15134;48.768;9.184;2023-01-15T04:49:47;865.63;;;770.20;;
27740;SDS011;15134;48.768;9.184;2023-01-15T04:52:13;863.00;;;767.47;;
27740;SDS011;15134;48.768;9.184;2023-01-15T04:54:39;869.15;;;773.53;;
27740;SDS011;15134;48.768;9.184;2023-01-15T04:57:05;875.58;;;779.67;;
27740;SDS011;15134;48.768;9.184;2023-01-15T04:59:31;870.85;;;775.28;;
27740;SDS011;15134;48.768;9.184;2023-01-15T05:01:57;868.25;;;772.75;;
27740;SDS011;15134;48.768;9.184;2023-01-15T05:04:22;863.92;;;768.63;;
27740;SDS011;15134;48.768;9.184;2023-01-15T05:06:48;865.88;;;770.67;;
27740;SDS011;15134;48.768;9.184;2023-01-15T05:09:14;869.13;;;773.60;;
27740;SDS011;15134;48.768;9.184;2023-01-15T05:11:40;858.05;;;762.97;;
27740;SDS011;15134;48.768;9.184;2023-01-15T05:14:06;867.10;;;771.60;;
27740;SDS011;15134;48.768;9.184;2023-01-15T05:16:33;864.92;;;769.65;;
27740;SDS011;15134;48.768;9.184;2023-01-15T05:19:00;855.70;;;760.83;;
27740;SDS011;15134;48.768;9.184;2023-01-15T05:21:29;858.47;;;763.58;;
27740;SDS011;15134;48.768;9.184;2023-01-15T05:23:56;857.45;;;762.55;;
27740;SDS011;15134;48.768;9.184;2023-01-15T05:26:24;866.58;;;771.33;;
27740;SDS011;15134;48.768;9.184;2023-01-15T05:28:55;849.75;;;753.30;;
27740;SDS011;15134;48.768;9.184;2023-01-15T05:31:22;844.75;;;740.78;;
27740;SDS011;15134;48.768;9.184;2023-01-15T05:33:49;842.88;;;734.35;;
27740;SDS011;15134;48.768;9.184;2023-01-15T05:36:16;841.38;;;729.22;;
27740;SDS011;15134;48.768;9.184;2023-01-15T05:38:44;838.22;;;721.92;;
27740;SDS011;15134;48.768;9.184;2023-01-15T05:41:11;837.17;;;715.27;;
27740;SDS011;15134;48.768;9.184;2023-01-15T05:44:02;836.67;;;716.45;;
27740;SDS011;15134;48.768;9.184;2023-01-15T05:46:29;833.13;;;708.90;;
27740;SDS011;15134;48.768;9.184;2023-01-15T05:49:02;835.27;;;712.00;;
27740;SDS011;15134;48.768;9.184;2023-01-15T05:51:30;833.25;;;705.88;;
27740;SDS011;15134;48.768;9.184;2023-01-15T05:53:56;828.60;;;699.63;;
27740;SDS011;15134;48.768;9.184;2023-01-15T05:56:22;833.30;;;703.67;;
27740;SDS011;15134;48.768;9.184;2023-01-15T05:58:48;835.07;;;712.17;;
27740;SDS011;15134;48.768;9.184;2023-01-15T06:01:14;839.90;;;723.45;;
27740;SDS011;15134;48.768;9.184;2023-01-15T06:03:39;835.47;;;714.40;;
27740;SDS011;15134;48.768;9.184;2023-01-15T06:06:15;834.65;;;715.05;;
27740;SDS011;15134;48.768;9.184;2023-01-15T06:08:42;832.67;;;706.15;;
27740;SDS011;15134;48.768;9.184;2023-01-15T06:11:08;834.63;;;708.65;;
27740;SDS011;15134;48.768;9.184;2023-01-15T06:13:35;837.35;;;711.85;;
27740;SDS011;15134;48.768;9.184;2023-01-15T06:16:03;835.92;;;713.53;;
27740;SDS011;15134;48.768;9.184;2023-01-15T06:18:29;839.72;;;721.28;;
27740;SDS011;15134;48.768;9.184;2023-01-15T06:20:55;837.38;;;714.83;;
27740;SDS011;15134;48.768;9.184;2023-01-15T06:23:21;836.13;;;714.53;;
27740;SDS011;15134;48.768;9.184;2023-01-15T06:25:46;838.53;;;714.65;;
27740;SDS011;15134;48.768;9.184;2023-01-15T06:28:12;835.67;;;709.95;;
27740;SDS011;15134;48.768;9.184;2023-01-15T06:30:38;836.78;;;711.75;;
27740;SDS011;15134;48.768;9.184;2023-01-15T06:33:04;836.53;;;712.70;;
27740;SDS011;15134;48.768;9.184;2023-01-15T06:35:31;835.90;;;709.95;;
27740;SDS011;15134;48.768;9.184;2023-01-15T06:37:57;833.75;;;706.28;;
27740;SDS011;15134;48.768;9.184;2023-01-15T06:40:23;835.28;;;711.67;;
27740;SDS011;15134;48.768;9.184;2023-01-15T06:42:51;833.05;;;704.33;;
27740;SDS011;15134;48.768;9.184;2023-01-15T06:45:36;830.97;;;697.95;;
27740;SDS011;15134;48.768;9.184;2023-01-15T06:48:22;833.83;;;704.08;;
27740;SDS011;15134;48.768;9.184;2023-01-15T06:50:49;827.90;;;690.72;;
27740;SDS011;15134;48.768;9.184;2023-01-15T06:53:15;829.10;;;693.03;;
27740;SDS011;15134;48.768;9.184;2023-01-15T06:55:41;827.60;;;683.17;;
27740;SDS011;15134;48.768;9.184;2023-01-15T06:58:07;824.70;;;681.13;;
27740;SDS011;15134;48.768;9.184;2023-01-15T07:00:32;831.33;;;693.47;;
27740;SDS011;15134;48.768;9.184;2023-01-15T07:03:02;826.80;;;682.22;;
27740;SDS011;15134;48.768;9.184;2023-01-15T07:05:28;826.22;;;683.45;;
27740;SDS011;15134;48.768;9.184;2023-01-15T07:07:56;826.15;;;681.97;;
27740;SDS011;15134;48.768;9.184;2023-01-15T07:10:22;826.45;;;682.60;;
27740;SDS011;15134;48.768;9.184;2023-01-15T07:12:49;820.92;;;671.53;;
27740;SDS011;15134;48.768;9.184;2023-01-15T07:15:15;825.67;;;678.80;;
27740;SDS011;15134;48.768;9.184;2023-01-15T07:17:40;822.80;;;673.83;;
27740;SDS011;15134;48.768;9.184;2023-01-15T07:20:08;819.17;;;664.58;;
27740;SDS011;15134;48.768;9.184;2023-01-15T07:22:34;821.97;;;670.80;;
27740;SDS011;15134;48.768;9.184;2023-01-15T07:25:00;821.75;;;671.75;;
27740;SDS011;15134;48.768;9.184;2023-01-15T07:27:25;821.57;;;672.73;;
27740;SDS011;15134;48.768;9.184;2023-01-15T07:29:51;823.33;;;672.53;;
27740;SDS011;15134;48.768;9.184;2023-01-15T07:32:17;816.80;;;661.53;;
27740;SDS011;15134;48.768;9.184;2023-01-15T07:34:44;819.63;;;665.20;;
27740;SDS011;15134;48.768;9.184;2023-01-15T07:37:10;821.45;;;669.72;;
27740;SDS011;15134;48.768;9.184;2023-01-15T07:39:36;823.42;;;671.95;;
27740;SDS011;15134;48.768;9.184;2023-01-15T07:42:02;820.90;;;666.92;;
27740;SDS011;15134;48.768;9.184;2023-01-15T07:44:46;821.03;;;667.78;;
27740;SDS011;15134;48.768;9.184;2023-01-15T07:47:30;823.45;;;673.45;;
27740;SDS011;15134;48.768;9.184;2023-01-15T07:50:17;821.53;;;669.90;;
27740;SDS011;15134;48.768;9.184;2023-01-15T07:52:44;823.25;;;672.47;;
27740;SDS011;15134;48.768;9.184;2023-01-15T07:55:10;826.53;;;683.47;;
27740;SDS011;15134;48.768;9.184;2023-01-15T07:57:39;826.07;;;682.93;;
27740;SDS011;15134;48.768;9.184;2023-01-15T08:00:07;825.90;;;681.85;;
27740;SDS011;15134;48.768;9.184;2023-01-15T08:02:38;826.40;;;680.80;;
27740;SDS011;15134;48.768;9.184;2023-01-15T08:05:04;825.90;;;679.22;;
27740;SDS011;15134;48.768;9.184;2023-01-15T08:07:35;825.58;;;682.35;;
27740;SDS011;15134;48.768;9.184;2023-01-15T08:10:05;829.55;;;690.90;;
27740;SDS011;15134;48.768;9.184;2023-01-15T08:12:31;830.65;;;693.10;;
27740;SDS011;15134;48.768;9.184;2023-01-15T08:15:16;828.83;;;692.38;;
27740;SDS011;15134;48.768;9.184;2023-01-15T08:17:51;831.35;;;699.28;;
27740;SDS011;15134;48.768;9.184;2023-01-15T08:20:20;828.30;;;692.45;;
27740;SDS011;15134;48.768;9.184;2023-01-15T08:22:48;828.15;;;688.90;;
27740;SDS011;15134;48.768;9.184;2023-01-15T08:25:14;828.35;;;689.55;;
27740;SDS011;15134;48.768;9.184;2023-01-15T08:27:42;822.83;;;676.55;;
27740;SDS011;15134;48.768;9.184;2023-01-15T08:30:09;823.87;;;676.97;;
27740;SDS011;15134;48.768;9.184;2023-01-15T08:32:38;824.97;;;681.50;;
27740;SDS011;15134;48.768;9.184;2023-01-15T08:35:03;821.90;;;673.35;;
27740;SDS011;15134;48.768;9.184;2023-01-15T08:37:29;824.00;;;678.08;;
27740;SDS011;15134;48.768;9.184;2023-01-15T08:39:55;820.73;;;671.43;;
27740;SDS011;15134;48.768;9.184;2023-01-15T08:42:21;821.87;;;672.77;;
27740;SDS011;15134;48.768;9.184;2023-01-15T08:44:47;824.08;;;677.38;;
27740;SDS011;15134;48.768;9.184;2023-01-15T08:47:13;825.35;;;677.00;;
27740;SDS011;15134;48.768;9.184;2023-01-15T08:49:40;825.83;;;683.17;;
27740;SDS011;15134;48.768;9.184;2023-01-15T08:52:06;828.80;;;688.17;;
27740;SDS011;15134;48.768;9.184;2023-01-15T08:54:32;826.47;;;686.95;;
27740;SDS011;15134;48.768;9.184;2023-01-15T08:56:58;829.67;;;692.72;;
27740;SDS011;15134;48.768;9.184;2023-01-15T08:59:24;830.33;;;692.67;;
27740;SDS011;15134;48.768;9.184;2023-01-15T09:01:50;829.03;;;694.55;;
27740;SDS011;15134;48.768;9.184;2023-01-15T09:04:16;832.15;;;698.30;;
27740;SDS011;15134;48.768;9.184;2023-01-15T09:06:44;833.67;;;701.43;;
27740;SDS011;15134;48.768;9.184;2023-01-15T09:09:11;832.28;;;697.38;;
27740;SDS011;15134;48.768;9.184;2023-01-15T09:11:37;836.10;;;704.92;;
27740;SDS011;15134;48.768;9.184;2023-01-15T09:14:05;830.85;;;696.10;;
27740;SDS011;15134;48.768;9.184;2023-01-15T09:16:31;830.30;;;694.13;;
27740;SDS011;15134;48.768;9.184;2023-01-15T09:18:58;834.58;;;704.28;;
27740;SDS011;15134;48.768;9.184;2023-01-15T09:21:23;831.23;;;696.10;;
27740;SDS011;15134;48.768;9.184;2023-01-15T09:23:49;829.53;;;692.50;;
27740;SDS011;15134;48.768;9.184;2023-01-15T09:28:55;829.92;;;697.15;;
27740;SDS011;15134;48.768;9.184;2023-01-15T09:31:21;828.70;;;694.63;;
27740;SDS011;15134;48.768;9.184;2023-01-15T09:33:47;832.10;;;702.25;;
27740;SDS011;15134;48.768;9.184;2023-01-15T09:36:14;834.77;;;704.93;;
27740;SDS011;15134;48.768;9.184;2023-01-15T09:38:41;836.88;;;710.25;;
27740;SDS011;15134;48.768;9.184;2023-01-15T09:41:09;834.05;;;707.22;;
27740;SDS011;15134;48.768;9.184;2023-01-15T09:46:53;834.15;;;707.83;;
27740;SDS011;15134;48.768;9.184;2023-01-15T09:57:44;838.35;;;717.47;;
27740;SDS011;15134;48.768;9.184;2023-01-15T10:00:23;837.57;;;712.73;;
27740;SDS011;15134;48.768;9.184;2023-01-15T10:02:58;834.80;;;705.60;;
27740;SDS011;15134;48.768;9.184;2023-01-15T10:05:30;835.03;;;703.80;;
27740;SDS011;15134;48.768;9.184;2023-01-15T10:10:49;826.22;;;684.75;;
27740;SDS011;15134;48.768;9.184;2023-01-15T10:13:36;825.55;;;682.90;;
27740;SDS011;15134;48.768;9.184;2023-01-15T10:16:04;823.10;;;676.65;;
27740;SDS011;15134;48.768;9.184;2023-01-15T10:18:30;825.20;;;680.88;;
27740;SDS011;15134;48.768;9.184;2023-01-15T10:26:10;826.22;;;683.95;;
27740;SDS011;15134;48.768;9.184;2023-01-15T10:29:00;830.33;;;694.30;;
27740;SDS011;15134;48.768;9.184;2023-01-15T10:31:32;823.33;;;678.00;;
27740;SDS011;15134;48.768;9.184;2023-01-15T10:34:21;821.78;;;675.88;;
27740;SDS011;15134;48.768;9.184;2023-01-15T10:40:25;826.13;;;684.63;;
27740;SDS011;15134;48.768;9.184;2023-01-15T10:42:54;822.97;;;681.75;;
27740;SDS011;15134;48.768;9.184;2023-01-15T10:45:29;828.38;;;696.20;;
27740;SDS011;15134;48.768;9.184;2023-01-15T10:50:36;830.53;;;699.83;;
27740;SDS011;15134;48.768;9.184;2023-01-15T10:55:38;829.10;;;694.10;;
27740;SDS011;15134;48.768;9.184;2023-01-15T10:58:11;827.70;;;691.47;;
27740;SDS011;15134;48.768;9.184;2023-01-15T11:00:49;821.05;;;675.97;;
27740;SDS011;15134;48.768;9.184;2023-01-15T11:03:21;820.28;;;672.60;;
27740;SDS011;15134;48.768;9.184;2023-01-15T11:05:55;815.22;;;657.65;;
27740;SDS011;15134;48.768;9.184;2023-01-15T11:08:22;809.63;;;641.17;;
27740;SDS011;15134;48.768;9.184;2023-01-15T11:11:13;807.95;;;637.05;;
27740;SDS011;15134;48.768;9.184;2023-01-15T11:13:53;811.97;;;646.80;;
27740;SDS011;15134;48.768;9.184;2023-01-15T11:16:39;810.70;;;646.85;;
27740;SDS011;15134;48.768;9.184;2023-01-15T11:19:30;815.08;;;655.15;;
27740;SDS011;15134;48.768;9.184;2023-01-15T11:22:06;809.42;;;643.45;;
27740;SDS011;15134;48.768;9.184;2023-01-15T11:24:37;811.63;;;644.85;;
27740;SDS011;15134;48.768;9.184;2023-01-15T11:27:15;813.60;;;649.85;;
27740;SDS011;15134;48.768;9.184;2023-01-15T11:29:58;814.67;;;655.65;;
27740;SDS011;15134;48.768;9.184;2023-01-15T11:35:00;818.47;;;662.72;;
27740;SDS011;15134;48.768;9.184;2023-01-15T11:37:32;820.00;;;664.17;;
27740;SDS011;15134;48.768;9.184;2023-01-15T11:39:58;819.60;;;664.70;;
27740;SDS011;15134;48.768;9.184;2023-01-15T11:42:30;821.22;;;668.40;;
27740;SDS011;15134;48.768;9.184;2023-01-15T11:45:18;821.80;;;670.53;;
27740;SDS011;15134;48.768;9.184;2023-01-15T11:48:13;818.72;;;662.13;;
27740;SDS011;15134;48.768;9.184;2023-01-15T11:51:02;817.88;;;662.78;;
27740;SDS011;15134;48.768;9.184;2023-01-15T11:53:33;818.17;;;659.40;;
27740;SDS011;15134;48.768;9.184;2023-01-15T11:56:08;819.67;;;664.47;;
27740;SDS011;15134;48.768;9.184;2023-01-15T11:58:43;819.53;;;664.05;;
27740;SDS011;15134;48.768;9.184;2023-01-15T12:01:20;819.03;;;666.60;;
27740;SDS011;15134;48.768;9.184;2023-01-15T12:04:00;820.20;;;664.77;;
27740;SDS011;15134;48.768;9.184;2023-01-15T12:06:29;819.55;;;668.47;;
27740;SDS011;15134;48.768;9.184;2023-01-15T12:09:06;820.60;;;669.53;;
27740;SDS011;15134;48.768;9.184;2023-01-15T12:14:40;816.40;;;660.63;;
27740;SDS011;15134;48.768;9.184;2023-01-15T12:17:30;819.47;;;665.38;;
27740;SDS011;15134;48.768;9.184;2023-01-15T12:23:08;819.20;;;656.70;;
27740;SDS011;15134;48.768;9.184;2023-01-15T12:26:00;815.80;;;651.23;;
27740;SDS011;15134;48.768;9.184;2023-01-15T12:29:04;815.03;;;650.67;;
27740;SDS011;15134;48.768;9.184;2023-01-15T12:32:03;820.65;;;665.50;;
27740;SDS011;15134;48.768;9.184;2023-01-15T12:34:41;813.55;;;648.70;;
27740;SDS011;15134;48.768;9.184;2023-01-15T12:37:33;818.90;;;658.15;;
27740;SDS011;15134;48.768;9.184;2023-01-15T12:43:10;811.13;;;645.22;;
27740;SDS011;15134;48.768;9.184;2023-01-15T12:45:58;816.40;;;655.80;;
27740;SDS011;15134;48.768;9.184;2023-01-15T12:48:40;816.35;;;652.50;;
27740;SDS011;15134;48.768;9.184;2023-01-15T12:51:18;812.72;;;648.08;;
27740;SDS011;15134;48.768;9.184;2023-01-15T12:53:59;812.47;;;648.97;;
27740;SDS011;15134;48.768;9.184;2023-01-15T12:56:32;820.27;;;654.40;;
27740;SDS011;15134;48.768;9.184;2023-01-15T12:59:24;814.58;;;649.33;;
27740;SDS011;15134;48.768;9.184;2023-01-15T13:04:29;815.78;;;654.33;;
27740;SDS011;15134;48.768;9.184;2023-01-15T13:10:06;817.53;;;653.67;;
27740;SDS011;15134;48.768;9.184;2023-01-15T13:12:43;813.65;;;646.42;;
27740;SDS011;15134;48.768;9.184;2023-01-15T13:15:15;816.27;;;652.73;;
27740;SDS011;15134;48.768;9.184;2023-01-15T13:17:50;814.03;;;651.38;;
27740;SDS011;15134;48.768;9.184;2023-01-15T13:28:43;812.30;;;646.72;;
27740;SDS011;15134;48.768;9.184;2023-01-15T13:31:25;813.25;;;650.17;;
27740;SDS011;15134;48.768;9.184;2023-01-15T13:39:48;815.78;;;652.65;;
27740;SDS011;15134;48.768;9.184;2023-01-15T13:42:20;815.67;;;652.63;;
27740;SDS011;15134;48.768;9.184;2023-01-15T13:44:58;820.67;;;662.05;;
27740;SDS011;15134;48.768;9.184;2023-01-15T13:47:48;813.42;;;649.55;;
27740;SDS011;15134;48.768;9.184;2023-01-15T13:50:18;815.90;;;650.35;;
27740;SDS011;15134;48.768;9.184;2023-01-15T13:53:01;815.80;;;655.67;;
27740;SDS011;15134;48.768;9.184;2023-01-15T13:55:51;815.20;;;651.22;;
27740;SDS011;15134;48.768;9.184;2023-01-15T13:58:30;815.22;;;651.20;;
27740;SDS011;15134;48.768;9.184;2023-01-15T14:06:41;815.00;;;652.08;;
27740;SDS011;15134;48.768;9.184;2023-01-15T14:09:11;810.90;;;645.97;;
27740;SDS011;15134;48.768;9.184;2023-01-15T14:17:24;812.80;;;647.70;;
27740;SDS011;15134;48.768;9.184;2023-01-15T14:31:32;810.70;;;644.20;;
27740;SDS011;15134;48.768;9.184;2023-01-15T14:40:15;810.30;;;641.20;;
27740;SDS011;15134;48.768;9.184;2023-01-15T14:45:04;815.85;;;652.83;;
27740;SDS011;15134;48.768;9.184;2023-01-15T14:47:35;812.45;;;645.78;;
27740;SDS011;15134;48.768;9.184;2023-01-15T14:50:27;812.78;;;645.83;;
27740;SDS011;15134;48.768;9.184;2023-01-15T14:53:04;814.08;;;649.30;;
27740;SDS011;15134;48.768;9.184;2023-01-15T14:55:31;812.20;;;646.45;;
27740;SDS011;15134;48.768;9.184;2023-01-15T14:58:05;813.92;;;648.05;;
27740;SDS011;15134;48.768;9.184;2023-01-15T15:00:38;810.55;;;643.20;;
27740;SDS011;15134;48.768;9.184;2023-01-15T15:03:13;809.70;;;641.55;;
27740;SDS011;15134;48.768;9.184;2023-01-15T15:05:42;812.83;;;642.45;;
27740;SDS011;15134;48.768;9.184;2023-01-15T15:08:14;811.00;;;643.42;;
27740;SDS011;15134;48.768;9.184;2023-01-15T15:10:43;810.67;;;642.42;;
27740;SDS011;15134;48.768;9.184;2023-01-15T15:13:30;806.03;;;630.35;;
27740;SDS011;15134;48.768;9.184;2023-01-15T15:18:51;809.92;;;637.08;;
27740;SDS011;15134;48.768;9.184;2023-01-15T15:21:32;812.72;;;645.15;;
27740;SDS011;15134;48.768;9.184;2023-01-15T15:24:06;807.00;;;628.92;;
27740;SDS011;15134;48.768;9.184;2023-01-15T15:26:38;806.42;;;629.50;;
27740;SDS011;15134;48.768;9.184;2023-01-15T15:29:05;807.23;;;632.50;;
27740;SDS011;15134;48.768;9.184;2023-01-15T15:31:36;805.88;;;627.50;;
27740;SDS011;15134;48.768;9.184;2023-01-15T15:34:05;809.78;;;637.88;;
27740;SDS011;15134;48.768;9.184;2023-01-15T15:36:36;809.45;;;636.78;;
27740;SDS011;15134;48.768;9.184;2023-01-15T15:39:12;809.53;;;638.90;;
27740;SDS011;15134;48.768;9.184;2023-01-15T15:41:48;806.47;;;631.95;;
27740;SDS011;15134;48.768;9.184;2023-01-15T15:47:36;808.58;;;638.17;;
27740;SDS011;15134;48.768;9.184;2023-01-15T15:50:27;809.85;;;639.10;;
27740;SDS011;15134;48.768;9.184;2023-01-15T15:52:55;805.25;;;626.30;;
27740;SDS011;15134;48.768;9.184;2023-01-15T15:55:22;807.22;;;636.22;;
27740;SDS011;15134;48.768;9.184;2023-01-15T15:57:55;805.90;;;632.00;;
27740;SDS011;15134;48.768;9.184;2023-01-15T16:00:29;807.08;;;632.97;;
27740;SDS011;15134;48.768;9.184;2023-01-15T16:02:59;803.37;;;623.60;;
27740;SDS011;15134;48.768;9.184;2023-01-15T16:05:31;803.38;;;621.28;;
27740;SDS011;15134;48.768;9.184;2023-01-15T16:08:07;802.88;;;622.90;;
27740;SDS011;15134;48.768;9.184;2023-01-15T16:10:39;804.67;;;627.20;;
27740;SDS011;15134;48.768;9.184;2023-01-15T16:13:05;803.30;;;627.25;;
27740;SDS011;15134;48.768;9.184;2023-01-15T16:15:37;798.97;;;615.30;;
27740;SDS011;15134;48.768;9.184;2023-01-15T16:18:05;799.92;;;620.58;;
27740;SDS011;15134;48.768;9.184;2023-01-15T16:20:46;805.75;;;623.90;;
27740;SDS011;15134;48.768;9.184;2023-01-15T16:23:20;804.13;;;625.55;;
27740;SDS011;15134;48.768;9.184;2023-01-15T16:26:21;805.78;;;630.72;;